createdAt,value
2022-10-30T00:00:47.093Z,1.85
2022-10-30T00:03:15.064Z,18.13
2022-10-30T00:05:47.394Z,1.23
2022-10-30T00:08:16.654Z,1.40
2022-10-30T00:10:44.358Z,4.32
2022-10-30T00:13:12.341Z,1.85
2022-10-30T00:15:39.294Z,1.95
2022-10-30T00:18:06.308Z,9.18
2022-10-30T00:20:33.299Z,32.95
2022-10-30T00:23:00.477Z,2.45
2022-10-30T00:25:27.650Z,5.47
2022-10-30T00:27:54.553Z,12.27
2022-10-30T00:30:21.468Z,16.75
2022-10-30T00:32:48.395Z,4.25
2022-10-30T00:35:15.719Z,0.90
2022-10-30T00:37:42.564Z,6.22
2022-10-30T00:40:15.390Z,2.53
2022-10-30T00:42:43.145Z,9.20
2022-10-30T00:45:14.919Z,1.77
2022-10-30T00:47:54.908Z,5.70
2022-10-30T00:50:30.800Z,3.65
2022-10-30T00:53:03.308Z,4.05
2022-10-30T00:55:38.234Z,3.65
2022-10-30T01:00:39.399Z,6.18
2022-10-30T01:03:06.546Z,2.30
2022-10-30T01:05:34.775Z,4.53
2022-10-30T01:08:01.961Z,5.50
2022-10-30T01:10:29.096Z,3.70
2022-10-30T01:12:58.748Z,1.90
2022-10-30T01:15:35.442Z,3.58
2022-10-30T01:18:18.235Z,2.90
2022-10-30T01:20:54.366Z,2.75
2022-10-30T01:23:46.021Z,4.20
2022-10-30T01:26:28.823Z,1.77
2022-10-30T01:31:41.489Z,3.60
2022-10-30T01:34:47.605Z,1.42
2022-10-30T01:37:39.224Z,2.17
2022-10-30T01:40:12.141Z,6.53
2022-10-30T01:42:44.373Z,4.93
2022-10-30T01:45:19.772Z,5.82
2022-10-30T01:47:49.751Z,3.63
2022-10-30T01:50:22.683Z,3.00
2022-10-30T01:55:57.794Z,2.65
2022-10-30T01:58:42.265Z,1.23
2022-10-30T02:01:09.350Z,5.30
2022-10-30T02:03:36.663Z,2.15
2022-10-30T02:06:03.750Z,5.05
2022-10-30T02:08:30.762Z,1.63
2022-10-30T02:10:58.846Z,4.03
2022-10-30T02:13:39.627Z,2.88
2022-10-30T02:16:09.049Z,1.55
2022-10-30T02:18:36.421Z,9.10
2022-10-30T02:21:03.830Z,2.35
2022-10-30T02:23:33.301Z,9.90
2022-10-30T02:26:00.275Z,1.23
2022-10-30T02:28:27.876Z,2.30
2022-10-30T02:30:55.109Z,0.80
2022-10-30T02:33:23.570Z,3.53
2022-10-30T02:35:51.513Z,10.25
2022-10-30T02:38:18.886Z,2.45
2022-10-30T02:40:45.857Z,3.28
2022-10-30T02:43:12.794Z,6.78
2022-10-30T02:45:39.679Z,1.08
2022-10-30T02:48:07.557Z,8.35
2022-10-30T02:50:34.603Z,5.57
2022-10-30T02:53:01.605Z,5.15
2022-10-30T02:55:28.773Z,3.65
2022-10-30T02:57:55.815Z,2.58
2022-10-30T03:00:22.779Z,3.45
2022-10-30T03:02:55.058Z,3.35
2022-10-30T03:05:22.445Z,5.95
2022-10-30T03:07:49.710Z,1.80
2022-10-30T03:10:16.681Z,0.50
2022-10-30T03:12:43.935Z,1.92
2022-10-30T03:15:11.231Z,1.10
2022-10-30T03:17:38.175Z,1.85
2022-10-30T03:20:05.485Z,2.13
2022-10-30T03:22:33.349Z,0.95
2022-10-30T03:25:00.294Z,1.13
2022-10-30T03:27:27.285Z,0.70
2022-10-30T03:29:54.174Z,0.80
2022-10-30T03:32:21.150Z,2.72
2022-10-30T03:34:53.068Z,1.95
2022-10-30T03:37:20.074Z,3.58
2022-10-30T03:39:47.001Z,0.82
2022-10-30T03:42:13.848Z,2.70
2022-10-30T03:44:40.797Z,0.68
2022-10-30T03:47:08.459Z,1.40
2022-10-30T03:49:40.328Z,2.10
2022-10-30T03:52:11.165Z,0.60
2022-10-30T03:54:38.039Z,0.68
2022-10-30T03:57:04.985Z,2.22
2022-10-30T03:59:41.325Z,2.38
2022-10-30T04:02:40.378Z,1.85
2022-10-30T04:05:09.024Z,16.13
2022-10-30T04:07:35.931Z,8.50
2022-10-30T04:10:03.144Z,1.42
2022-10-30T04:12:30.141Z,0.50
2022-10-30T04:14:57.053Z,1.30
2022-10-30T04:17:23.983Z,0.60
2022-10-30T04:19:51.059Z,5.30
2022-10-30T04:22:18.004Z,5.72
2022-10-30T04:24:45.479Z,5.25
2022-10-30T04:27:13.449Z,3.72
2022-10-30T04:29:42.224Z,11.80
2022-10-30T04:32:10.754Z,10.20
2022-10-30T04:34:39.542Z,16.80
2022-10-30T04:37:07.290Z,4.65
2022-10-30T04:39:34.287Z,9.68
2022-10-30T04:42:13.266Z,7.18
2022-10-30T04:44:42.358Z,28.35
2022-10-30T04:47:10.777Z,1.48
2022-10-30T04:49:38.144Z,3.75
2022-10-30T04:52:05.033Z,3.92
2022-10-30T04:54:32.008Z,39.88
2022-10-30T04:56:59.156Z,9.98
2022-10-30T04:59:26.101Z,1.83
2022-10-30T05:01:54.424Z,17.98
2022-10-30T05:04:21.502Z,28.98
2022-10-30T05:06:48.533Z,3.40
2022-10-30T05:09:16.252Z,1.42
2022-10-30T05:11:43.209Z,8.93
2022-10-30T05:14:10.154Z,1.02
2022-10-30T05:16:38.128Z,0.90
2022-10-30T05:19:05.487Z,4.20
2022-10-30T05:21:34.065Z,23.35
2022-10-30T05:24:01.380Z,8.52
2022-10-30T05:26:34.278Z,4.07
2022-10-30T05:29:01.278Z,5.00
2022-10-30T05:31:28.744Z,15.60
2022-10-30T05:34:14.155Z,4.53
2022-10-30T05:36:41.926Z,5.80
2022-10-30T05:39:10.136Z,8.70
2022-10-30T05:41:41.001Z,5.55
2022-10-30T05:44:08.296Z,9.43
2022-10-30T05:46:35.215Z,5.90
2022-10-30T05:49:18.272Z,21.13
2022-10-30T05:51:45.439Z,19.65
2022-10-30T05:54:12.621Z,2.83
2022-10-30T05:56:51.125Z,19.55
2022-10-30T05:59:18.261Z,18.52
2022-10-30T06:04:12.865Z,4.65
2022-10-30T06:06:40.623Z,5.18
2022-10-30T06:09:07.522Z,6.43
2022-10-30T06:11:54.501Z,6.05
2022-10-30T06:14:28.909Z,9.95
2022-10-30T06:16:55.902Z,7.75
2022-10-30T06:19:31.786Z,7.20
2022-10-30T06:22:11.426Z,3.92
2022-10-30T06:24:46.107Z,4.78
2022-10-30T06:27:36.417Z,3.90
2022-10-30T06:30:06.262Z,6.05
2022-10-30T06:32:33.410Z,5.55
2022-10-30T06:35:00.591Z,6.63
2022-10-30T06:37:28.322Z,2.85
2022-10-30T06:39:55.304Z,3.60
2022-10-30T06:42:46.411Z,1.98
2022-10-30T06:45:28.970Z,9.55
2022-10-30T06:47:56.642Z,22.40
2022-10-30T06:50:24.555Z,1.35
2022-10-30T06:52:51.816Z,1.30
2022-10-30T06:55:18.758Z,26.10
2022-10-30T06:58:04.445Z,20.50
2022-10-30T07:00:42.069Z,28.35
2022-10-30T07:03:32.779Z,10.57
2022-10-30T07:05:59.870Z,4.30
2022-10-30T07:08:27.122Z,2.60
2022-10-30T07:10:57.973Z,6.47
2022-10-30T07:13:53.985Z,4.47
2022-10-30T07:16:35.591Z,0.30
2022-10-30T07:19:04.729Z,0.35
2022-10-30T07:21:33.494Z,0.65
2022-10-30T07:24:05.338Z,0.40
2022-10-30T07:26:44.333Z,0.43
2022-10-30T07:29:40.321Z,0.40
2022-10-30T07:32:32.962Z,0.47
2022-10-30T07:35:35.567Z,0.30
2022-10-30T07:38:37.880Z,15.13
2022-10-30T07:41:25.260Z,0.70
2022-10-30T07:44:12.003Z,0.20
2022-10-30T07:46:46.902Z,0.20
2022-10-30T07:49:32.273Z,1.55
2022-10-30T07:52:05.263Z,0.28
2022-10-30T07:54:32.481Z,0.38
2022-10-30T07:57:09.509Z,0.25
2022-10-30T08:00:07.366Z,0.85
2022-10-30T08:02:40.614Z,1.17
2022-10-30T08:05:20.058Z,2.47
2022-10-30T08:08:05.134Z,0.47
2022-10-30T08:10:32.191Z,0.55
2022-10-30T08:12:59.137Z,2.40
2022-10-30T08:15:26.187Z,1.85
2022-10-30T08:17:54.385Z,0.65
2022-10-30T08:20:24.426Z,4.13
2022-10-30T08:22:57.090Z,2.47
2022-10-30T08:25:30.623Z,2.15
2022-10-30T08:27:58.148Z,7.00
2022-10-30T08:30:30.170Z,0.30
2022-10-30T08:33:03.724Z,1.55
2022-10-30T08:35:58.054Z,2.47
2022-10-30T08:38:27.357Z,0.22
2022-10-30T08:41:12.398Z,21.17
2022-10-30T08:43:46.267Z,1.50
2022-10-30T08:46:13.266Z,2.83
2022-10-30T08:48:41.072Z,17.88
2022-10-30T08:51:08.131Z,12.73
2022-10-30T08:53:38.017Z,3.72
2022-10-30T08:56:10.003Z,12.65
2022-10-30T08:58:57.180Z,1.90
2022-10-30T09:01:24.142Z,1.67
2022-10-30T09:04:20.426Z,3.30
2022-10-30T09:07:19.482Z,1.27
2022-10-30T09:12:34.204Z,6.20
2022-10-30T09:15:01.706Z,1.20
2022-10-30T09:17:30.760Z,2.53
2022-10-30T09:19:57.641Z,13.45
2022-10-30T09:22:33.852Z,1.23
2022-10-30T09:25:01.888Z,4.00
2022-10-30T09:27:47.414Z,5.18
2022-10-30T09:30:16.348Z,7.93
2022-10-30T09:32:46.674Z,4.80
2022-10-30T09:35:19.001Z,1.50
2022-10-30T09:37:45.982Z,2.80
2022-10-30T09:40:29.917Z,2.80
2022-10-30T09:43:08.875Z,0.88
2022-10-30T09:45:57.410Z,1.50
2022-10-30T09:48:46.307Z,0.68
2022-10-30T09:51:20.205Z,3.25
2022-10-30T09:54:00.546Z,1.83
2022-10-30T09:56:40.057Z,1.05
2022-10-30T09:59:28.455Z,2.83
2022-10-30T10:02:04.364Z,7.18
2022-10-30T10:05:06.315Z,2.30
2022-10-30T10:08:02.487Z,6.20
2022-10-30T10:10:53.467Z,4.55
2022-10-30T10:13:36.233Z,1.30
2022-10-30T10:16:36.768Z,2.53
2022-10-30T10:19:09.829Z,4.50
2022-10-30T10:21:44.101Z,7.53
2022-10-30T10:24:38.634Z,1.70
2022-10-30T10:27:56.166Z,3.08
2022-10-30T10:30:24.971Z,4.57
2022-10-30T10:33:07.029Z,1.88
2022-10-30T10:35:42.129Z,2.50
2022-10-30T10:38:15.174Z,5.18
2022-10-30T10:40:57.398Z,5.00
2022-10-30T10:43:53.915Z,4.47
2022-10-30T10:46:39.239Z,2.03
2022-10-30T10:51:42.318Z,4.07
2022-10-30T10:54:22.726Z,8.93
2022-10-30T10:56:52.068Z,2.75
2022-10-30T10:59:30.232Z,11.60
2022-10-30T11:02:36.147Z,6.40
2022-10-30T11:05:43.136Z,5.32
2022-10-30T11:08:22.700Z,4.72
2022-10-30T11:10:56.812Z,5.72
2022-10-30T11:13:27.920Z,2.83
2022-10-30T11:16:36.896Z,5.72
2022-10-30T11:19:08.185Z,5.30
2022-10-30T11:21:42.091Z,3.38
2022-10-30T11:24:29.654Z,3.35
2022-10-30T11:26:58.744Z,4.75
2022-10-30T11:29:30.123Z,1.30
2022-10-30T11:32:05.775Z,3.08
2022-10-30T11:34:36.373Z,3.67
2022-10-30T11:37:04.744Z,2.72
2022-10-30T11:39:35.675Z,8.30
2022-10-30T11:42:04.820Z,1.80
2022-10-30T11:44:36.209Z,10.40
2022-10-30T11:47:04.855Z,7.75
2022-10-30T11:49:45.059Z,10.25
2022-10-30T11:52:15.143Z,9.27
2022-10-30T11:54:48.476Z,6.22
2022-10-30T11:57:18.149Z,3.05
2022-10-30T11:59:47.459Z,5.75
2022-10-30T12:02:22.388Z,2.95
2022-10-30T12:04:51.592Z,3.58
2022-10-30T12:07:24.305Z,2.47
2022-10-30T12:09:51.491Z,8.23
2022-10-30T12:12:18.320Z,4.10
2022-10-30T12:14:45.327Z,3.03
2022-10-30T12:17:15.928Z,5.70
2022-10-30T12:19:49.665Z,9.75
2022-10-30T12:22:31.583Z,8.95
2022-10-30T12:25:02.201Z,7.60
2022-10-30T12:27:31.998Z,6.78
2022-10-30T12:30:09.912Z,4.45
2022-10-30T12:32:47.108Z,7.63
2022-10-30T12:35:26.025Z,6.55
2022-10-30T12:37:54.943Z,6.30
2022-10-30T12:40:28.304Z,3.03
2022-10-30T12:43:12.019Z,7.03
2022-10-30T12:45:45.643Z,21.13
2022-10-30T12:48:22.152Z,3.92
2022-10-30T12:51:15.937Z,4.07
2022-10-30T12:54:12.294Z,3.10
2022-10-30T12:56:44.564Z,3.88
2022-10-30T12:59:39.534Z,2.65
2022-10-30T13:02:30.395Z,4.05
2022-10-30T13:05:02.749Z,3.55
2022-10-30T13:07:55.616Z,5.15
2022-10-30T13:11:14.900Z,3.17
2022-10-30T13:13:48.499Z,12.52
2022-10-30T13:16:36.216Z,4.15
2022-10-30T13:19:04.053Z,4.72
2022-10-30T13:21:51.755Z,18.10
2022-10-30T13:24:28.941Z,15.40
2022-10-30T13:27:10.305Z,4.75
2022-10-30T13:30:09.825Z,7.63
2022-10-30T13:33:07.943Z,4.97
2022-10-30T13:35:43.686Z,5.72
2022-10-30T13:38:16.217Z,5.00
2022-10-30T13:40:49.510Z,5.18
2022-10-30T13:43:25.249Z,5.63
2022-10-30T13:46:24.523Z,9.57
2022-10-30T13:49:08.823Z,12.60
2022-10-30T13:51:45.776Z,6.47
2022-10-30T13:54:39.441Z,2.70
2022-10-30T13:57:20.365Z,4.32
2022-10-30T13:59:50.565Z,6.18
2022-10-30T14:02:43.799Z,5.82
2022-10-30T14:05:41.837Z,3.20
2022-10-30T14:08:37.825Z,8.65
2022-10-30T14:11:14.107Z,23.08
2022-10-30T14:13:58.536Z,18.08
2022-10-30T14:16:42.124Z,14.80
2022-10-30T14:19:16.536Z,53.15
2022-10-30T14:21:44.687Z,5.15
2022-10-30T14:24:19.866Z,5.43
2022-10-30T14:26:52.702Z,2.33
2022-10-30T14:29:35.706Z,2.22
2022-10-30T14:32:14.614Z,10.13
2022-10-30T14:34:50.512Z,3.75
2022-10-30T14:37:38.509Z,8.52
2022-10-30T14:40:34.455Z,4.35
2022-10-30T14:43:08.730Z,1.70
2022-10-30T14:45:49.641Z,8.10
2022-10-30T14:48:26.891Z,9.88
2022-10-30T14:51:03.891Z,6.47
2022-10-30T14:53:53.094Z,17.67
2022-10-30T14:56:47.969Z,10.00
2022-10-30T14:59:14.801Z,15.63
2022-10-30T15:01:44.884Z,6.40
2022-10-30T15:04:30.677Z,16.10
2022-10-30T15:07:16.459Z,10.05
2022-10-30T15:10:05.081Z,38.42
2022-10-30T15:13:02.191Z,6.40
2022-10-30T15:15:30.221Z,6.50
2022-10-30T15:18:01.569Z,4.90
2022-10-30T15:20:34.102Z,19.73
2022-10-30T15:23:04.858Z,7.15
2022-10-30T15:25:37.027Z,10.85
2022-10-30T15:28:04.525Z,28.08
2022-10-30T15:30:31.427Z,10.60
2022-10-30T15:32:58.720Z,9.93
2022-10-30T15:35:28.161Z,5.25
2022-10-30T15:38:05.337Z,8.82
2022-10-30T15:40:35.065Z,12.75
2022-10-30T15:43:04.877Z,17.42
2022-10-30T15:45:41.318Z,13.18
2022-10-30T15:48:32.862Z,11.73
2022-10-30T15:51:01.203Z,7.00
2022-10-30T15:54:03.500Z,16.83
2022-10-30T15:56:59.859Z,9.05
2022-10-30T15:59:30.609Z,31.38
2022-10-30T16:01:58.851Z,23.38
2022-10-30T16:04:31.302Z,30.40
2022-10-30T16:07:04.566Z,13.10
2022-10-30T16:09:31.612Z,13.60
2022-10-30T16:12:00.729Z,19.05
2022-10-30T16:14:35.958Z,18.38
2022-10-30T16:17:06.406Z,15.40
2022-10-30T16:19:42.622Z,35.45
2022-10-30T16:22:16.566Z,35.63
2022-10-30T16:24:43.808Z,86.07
2022-10-30T16:27:21.711Z,151.07
2022-10-30T16:29:56.032Z,104.30
2022-10-30T16:32:26.304Z,33.97
2022-10-30T16:35:04.171Z,32.95
2022-10-30T16:37:36.597Z,16.73
2022-10-30T16:40:13.475Z,33.53
2022-10-30T16:42:40.796Z,20.00
2022-10-30T16:45:10.618Z,16.10
2022-10-30T16:47:41.055Z,32.53
2022-10-30T16:50:12.772Z,5.55
2022-10-30T16:52:39.760Z,9.85
2022-10-30T16:55:22.846Z,10.63
2022-10-30T16:57:58.565Z,9.75
2022-10-30T17:00:30.554Z,7.13
2022-10-30T17:03:11.331Z,6.78
2022-10-30T17:05:40.752Z,2.53
2022-10-30T17:08:31.288Z,5.97
2022-10-30T17:11:02.808Z,4.63
2022-10-30T17:13:36.484Z,21.77
2022-10-30T17:16:36.189Z,28.88
2022-10-30T17:19:38.705Z,10.48
2022-10-30T17:22:13.943Z,4.05
2022-10-30T17:24:41.024Z,15.15
2022-10-30T17:27:30.801Z,39.13
2022-10-30T17:29:57.974Z,5.43
2022-10-30T17:33:02.776Z,4.07
2022-10-30T17:35:30.144Z,6.40
2022-10-30T17:37:59.812Z,1.58
2022-10-30T17:40:29.762Z,18.13
2022-10-30T17:42:56.661Z,16.75
2022-10-30T17:45:23.519Z,11.38
2022-10-30T17:47:50.329Z,6.03
2022-10-30T17:50:17.582Z,12.20
2022-10-30T17:52:44.578Z,4.95
2022-10-30T17:55:25.396Z,20.05
2022-10-30T17:57:52.656Z,6.00
2022-10-30T18:00:19.962Z,6.60
2022-10-30T18:02:47.251Z,6.50
2022-10-30T18:05:20.035Z,8.63
2022-10-30T18:07:47.172Z,5.13
2022-10-30T18:10:14.599Z,15.80
2022-10-30T18:12:41.672Z,5.63
2022-10-30T18:15:35.812Z,6.20
2022-10-30T18:18:03.871Z,9.02
2022-10-30T18:20:31.318Z,3.88
2022-10-30T18:22:58.742Z,4.53
2022-10-30T18:25:33.423Z,2.85
2022-10-30T18:28:00.492Z,8.93
2022-10-30T18:30:29.174Z,21.90
2022-10-30T18:32:56.981Z,3.53
2022-10-30T18:35:37.999Z,3.78
2022-10-30T18:38:06.612Z,31.15
2022-10-30T18:40:33.624Z,2.58
2022-10-30T18:43:01.567Z,10.85
2022-10-30T18:45:41.028Z,18.02
2022-10-30T18:48:09.018Z,22.17
2022-10-30T18:50:37.154Z,6.45
2022-10-30T18:53:06.686Z,10.25
2022-10-30T18:55:36.652Z,8.25
2022-10-30T18:58:04.549Z,8.07
2022-10-30T19:00:45.060Z,8.13
2022-10-30T19:03:19.169Z,5.28
2022-10-30T19:05:47.353Z,3.97
2022-10-30T19:08:14.706Z,5.82
2022-10-30T19:10:44.769Z,9.43
2022-10-30T19:13:22.217Z,13.27
2022-10-30T19:15:59.942Z,19.15
2022-10-30T19:18:28.532Z,22.35
2022-10-30T19:21:04.496Z,5.65
2022-10-30T19:23:33.388Z,5.57
2022-10-30T19:26:00.443Z,17.88
2022-10-30T19:28:27.442Z,34.35
2022-10-30T19:30:54.976Z,13.48
2022-10-30T19:33:23.665Z,20.35
2022-10-30T19:35:58.444Z,19.63
2022-10-30T19:38:56.210Z,12.27
2022-10-30T19:41:25.034Z,8.18
2022-10-30T19:43:53.115Z,29.23
2022-10-30T19:46:21.018Z,11.80
2022-10-30T19:48:57.123Z,26.52
2022-10-30T19:51:25.493Z,16.05
2022-10-30T19:53:54.059Z,10.10
2022-10-30T19:56:21.755Z,20.67
2022-10-30T19:58:49.118Z,12.52
2022-10-30T20:01:16.474Z,4.55
2022-10-30T20:03:43.668Z,10.57
2022-10-30T20:06:14.348Z,11.70
2022-10-30T20:08:42.166Z,15.73
2022-10-30T20:11:09.065Z,23.48
2022-10-30T20:13:37.354Z,9.25
2022-10-30T20:16:05.410Z,15.60
2022-10-30T20:18:34.752Z,6.93
2022-10-30T20:21:04.692Z,6.25
2022-10-30T20:23:32.197Z,7.18
2022-10-30T20:26:25.199Z,8.43
2022-10-30T20:28:53.001Z,8.63
2022-10-30T20:35:44.110Z,5.15
2022-10-30T22:08:39.247Z,3.70
2022-10-30T22:11:10.899Z,8.93
2022-10-30T22:13:38.709Z,37.67
2022-10-30T22:24:55.405Z,14.20
2022-10-30T22:27:22.333Z,13.82
2022-10-30T22:29:49.347Z,13.15
2022-10-30T22:32:16.314Z,21.27
2022-10-30T22:34:43.323Z,20.88
2022-10-30T22:37:10.223Z,14.07
2022-10-30T22:39:37.273Z,17.67
2022-10-30T22:42:04.216Z,6.60
2022-10-30T22:44:31.111Z,7.57
2022-10-30T22:46:58.007Z,8.00
2022-10-30T22:49:24.996Z,6.20
2022-10-30T22:51:51.855Z,7.75
2022-10-30T22:54:18.751Z,15.15
2022-10-30T22:56:45.558Z,4.03
2022-10-30T22:59:13.772Z,3.17
2022-10-30T23:01:41.982Z,8.82
2022-10-30T23:04:11.752Z,3.45
2022-10-30T23:06:38.787Z,10.65
2022-10-30T23:09:16.229Z,11.13
2022-10-30T23:16:01.716Z,12.35
2022-10-30T23:18:28.985Z,5.05
2022-10-30T23:21:01.149Z,9.52
2022-10-30T23:23:28.617Z,4.28
2022-10-30T23:25:55.696Z,13.00
2022-10-30T23:28:22.626Z,23.42
2022-10-30T23:30:49.566Z,10.02
2022-10-30T23:33:16.464Z,15.40
2022-10-30T23:35:43.402Z,10.05
2022-10-30T23:38:35.031Z,16.50
2022-10-30T23:41:01.913Z,11.05
2022-10-30T23:43:28.828Z,5.75
2022-10-30T23:45:55.775Z,11.10
2022-10-30T23:48:22.666Z,5.15
2022-10-30T23:50:49.535Z,8.65
2022-10-30T23:53:16.447Z,9.00
2022-10-30T23:55:54.638Z,2.58
2022-10-30T23:58:21.995Z,9.90
